Time;durP1;ratioP1;P1;durP2;ratioP2;P2;SDS_P1;SDS_P2;PMS_P1;PMS_P2;Temp;Humidity;BMP_temperature;BMP_pressure;BME280_temperature;BME280_humidity;BME280_pressure;Samples;Min_cycle;Max_cycle;Signal;HPM_P1;HPM_P2
2023/01/24 00:00:35;;;;;;;12.20;11.37;;;;;;;4.70;100.00;93692.97;5008296;28;20291;-76
2023/01/24 00:03:00;;;;;;;11.80;11.00;;;;;;;4.69;100.00;93699.16;5008394;28;20211;-76
2023/01/24 00:05:25;;;;;;;11.50;10.70;;;;;;;4.71;99.78;93694.56;5009241;28;20235;-75
2023/01/24 00:07:51;;;;;;;11.53;10.63;;;;;;;4.71;100.00;93689.38;5008985;28;20180;-75
2023/01/24 00:10:16;;;;;;;10.77;10.07;;;;;;;4.70;100.00;93708.47;5006337;28;20252;-75
2023/01/24 00:12:41;;;;;;;11.40;10.63;;;;;;;4.67;100.00;93706.31;5009628;28;20200;-75
2023/01/24 00:15:08;;;;;;;12.30;11.47;;;;;;;4.71;100.00;93704.91;5007580;28;20227;-75
2023/01/24 00:17:34;;;;;;;12.00;11.30;;;;;;;4.66;100.00;93691.81;5008706;28;20180;-75
2023/01/24 00:19:59;;;;;;;12.47;11.47;;;;;;;4.66;100.00;93702.16;5008646;28;20223;-75
2023/01/24 00:22:25;;;;;;;12.80;11.70;;;;;;;4.72;100.00;93696.13;5009657;28;20207;-75
2023/01/24 00:24:50;;;;;;;11.77;10.87;;;;;;;4.76;100.00;93697.25;5007730;28;20241;-75
2023/01/24 00:27:16;;;;;;;12.23;11.23;;;;;;;4.80;100.00;93703.59;5007909;28;20191;-75
2023/01/24 00:29:42;;;;;;;13.00;11.70;;;;;;;4.67;100.00;93692.59;5007794;28;20262;-75
2023/01/24 00:32:08;;;;;;;12.60;11.40;;;;;;;4.75;100.00;93700.88;5008570;28;20199;-75
2023/01/24 00:34:33;;;;;;;11.73;10.83;;;;;;;4.71;100.00;93693.75;5007350;28;20262;-76
2023/01/24 00:36:58;;;;;;;12.03;11.23;;;;;;;4.68;100.00;93681.25;5007063;28;20191;-75
2023/01/24 00:39:24;;;;;;;12.07;11.10;;;;;;;4.61;100.00;93699.44;5005996;28;20239;-75
2023/01/24 00:41:49;;;;;;;12.43;11.43;;;;;;;4.69;100.00;93706.09;5008285;28;20219;-76
2023/01/24 00:44:15;;;;;;;12.90;11.80;;;;;;;4.52;100.00;93664.53;5008423;28;20286;-75
2023/01/24 00:46:41;;;;;;;12.57;11.40;;;;;;;4.74;100.00;93699.28;5009404;28;20294;-75
2023/01/24 00:49:07;;;;;;;11.97;11.27;;;;;;;4.70;100.00;93692.97;5007085;28;20198;-75
2023/01/24 00:51:32;;;;;;;13.10;12.10;;;;;;;4.62;100.00;93679.53;5007243;28;20298;-75
2023/01/24 00:53:58;;;;;;;11.40;10.60;;;;;;;4.60;100.00;93695.28;5006976;28;20191;-76
2023/01/24 00:56:23;;;;;;;12.53;11.63;;;;;;;4.62;100.00;93688.06;5006701;28;20175;-75
2023/01/24 00:58:49;;;;;;;12.93;12.00;;;;;;;4.71;100.00;93704.09;5007740;28;20176;-75
2023/01/24 01:01:14;;;;;;;12.67;11.57;;;;;;;4.71;100.00;93699.72;5008358;28;21041;-76
2023/01/24 01:03:39;;;;;;;14.27;12.80;;;;;;;4.73;100.00;93700.28;5008932;28;20198;-75
2023/01/24 01:06:07;;;;;;;14.70;13.33;;;;;;;4.71;100.00;93704.91;5008629;28;20219;-75
2023/01/24 01:08:33;;;;;;;13.23;11.93;;;;;;;4.55;100.00;93684.78;5009402;28;20211;-77
2023/01/24 01:10:59;;;;;;;13.93;12.63;;;;;;;4.56;100.00;93676.00;5008686;28;20230;-76
2023/01/24 01:13:25;;;;;;;13.17;11.87;;;;;;;4.77;99.95;93713.59;5008697;28;20210;-76
2023/01/24 01:15:51;;;;;;;12.17;11.20;;;;;;;4.76;100.00;93715.38;5007345;28;20238;-75
2023/01/24 01:18:16;;;;;;;13.00;11.90;;;;;;;4.59;98.97;93698.84;5008426;28;20239;-76
2023/01/24 01:20:48;;;;;;;11.83;11.03;;;;;;;4.70;99.09;93715.47;5007343;28;20242;-76
2023/01/24 01:23:14;;;;;;;12.83;11.83;;;;;;;4.61;99.24;93714.94;5008348;28;20226;-76
2023/01/24 01:25:39;;;;;;;12.47;11.43;;;;;;;4.53;99.57;93722.97;5008242;28;20234;-76
2023/01/24 01:28:05;;;;;;;11.80;10.97;;;;;;;4.55;99.30;93726.16;5009044;28;20198;-76
2023/01/24 01:30:30;;;;;;;12.50;11.60;;;;;;;4.45;100.00;93718.09;5007343;28;20223;-77
2023/01/24 01:32:55;;;;;;;12.53;11.63;;;;;;;4.52;99.32;93716.25;5009100;28;20191;-76
2023/01/24 01:35:21;;;;;;;12.80;11.70;;;;;;;4.56;98.62;93719.19;5008166;28;20286;-76
2023/01/24 01:37:46;;;;;;;12.17;11.37;;;;;;;4.60;98.14;93713.38;5008908;28;20218;-76
2023/01/24 01:40:12;;;;;;;13.97;12.77;;;;;;;4.61;97.97;93714.94;5007321;28;20211;-76
2023/01/24 01:42:44;;;;;;;13.37;12.17;;;;;;;4.62;97.66;93708.00;5008290;28;20215;-76
2023/01/24 01:45:35;;;;;;;12.70;11.63;;;;;;;4.47;97.91;93710.91;5009115;28;20239;-76
2023/01/24 01:48:11;;;;;;;13.03;12.00;;;;;;;4.33;99.45;93717.22;5008344;28;20197;-76
2023/01/24 01:50:40;;;;;;;12.60;11.63;;;;;;;4.37;99.91;93705.44;5009005;28;20249;-76
2023/01/24 01:53:06;;;;;;;12.53;11.43;;;;;;;4.37;99.96;93708.00;5008754;28;20199;-75
2023/01/24 01:55:36;;;;;;;13.53;12.23;;;;;;;4.19;100.00;93695.06;5009156;28;20223;-76
2023/01/24 01:58:02;;;;;;;12.60;11.63;;;;;;;4.23;100.00;93691.09;5008960;28;20184;-76
2023/01/24 02:00:28;;;;;;;11.83;10.70;;;;;;;4.30;100.00;93709.88;5009112;28;20219;-75
2023/01/24 02:03:37;;;;;;;12.40;11.57;;;;;;;4.29;100.00;93692.81;5007171;28;20215;-75
2023/01/24 02:05:43;;;;;;;11.23;10.53;;;;;;;4.34;100.00;93702.50;5008245;28;20231;-76
2023/01/24 02:08:12;;;;;;;12.00;11.20;;;;;;;4.13;100.00;93708.84;5007847;28;20194;-76
2023/01/24 02:13:21;;;;;;;13.33;12.13;;;;;;;4.16;100.00;93700.69;5008021;28;20251;-77
2023/01/24 02:16:03;;;;;;;12.77;11.70;;;;;;;4.00;100.00;93680.53;5008642;28;20251;-76
2023/01/24 02:18:40;;;;;;;11.50;10.70;;;;;;;4.09;100.00;93694.78;5010673;28;20191;-75
2023/01/24 02:21:15;;;;;;;12.00;11.07;;;;;;;3.98;100.00;93686.94;5010269;28;20227;-75
2023/01/24 02:23:57;;;;;;;12.10;11.17;;;;;;;4.08;100.00;93702.72;5011686;28;20187;-75
2023/01/24 02:26:25;;;;;;;12.43;11.53;;;;;;;4.11;100.00;93700.50;5010769;28;20211;-75
2023/01/24 02:28:58;;;;;;;11.73;10.80;;;;;;;4.14;100.00;93699.31;5011705;28;21145;-75
2023/01/24 02:31:24;;;;;;;12.27;11.37;;;;;;;4.03;100.00;93705.94;5010130;28;20204;-75
2023/01/24 02:33:50;;;;;;;12.40;11.40;;;;;;;4.09;100.00;93706.91;5012157;28;20222;-74
2023/01/24 02:36:25;;;;;;;13.27;12.17;;;;;;;4.11;100.00;93713.44;5010833;28;20239;-74
2023/01/24 02:39:13;;;;;;;11.97;11.07;;;;;;;3.99;100.00;93709.97;5010689;28;20210;-75
2023/01/24 02:41:48;;;;;;;11.93;11.00;;;;;;;4.04;100.00;93706.75;5011623;28;20203;-75
2023/01/24 02:44:19;;;;;;;12.60;11.80;;;;;;;4.01;100.00;93702.00;5011092;28;20253;-75
2023/01/24 02:46:45;;;;;;;12.97;12.00;;;;;;;3.95;100.00;93695.91;5011474;28;20179;-75
2023/01/24 02:49:11;;;;;;;13.10;12.00;;;;;;;3.95;100.00;93708.03;5011843;28;21382;-74
2023/01/24 02:54:20;;;;;;;12.53;11.47;;;;;;;4.04;100.00;93704.16;5009892;28;20445;-74
2023/01/24 02:59:30;;;;;;;11.63;10.87;;;;;;;3.84;100.00;93693.22;5009008;28;20274;-75
2023/01/24 03:01:56;;;;;;;11.90;11.13;;;;;;;3.95;100.00;93693.31;5011401;28;20219;-75
2023/01/24 03:04:21;;;;;;;11.37;10.43;;;;;;;4.01;100.00;93697.63;5010606;28;20299;-75
2023/01/24 03:06:48;;;;;;;11.80;10.93;;;;;;;3.99;100.00;93691.88;5010434;28;20245;-75
2023/01/24 03:09:33;;;;;;;12.77;11.53;;;;;;;3.99;100.00;93688.50;5010389;28;20298;-75
2023/01/24 03:36:40;;;;;;;11.03;10.43;;;;;;;4.03;100.00;93685.28;5010348;28;20229;-75
2023/01/24 03:41:49;;;;;;;11.37;10.47;;;;;;;3.82;100.00;93646.94;5010873;28;20263;-75
2023/01/24 03:44:15;;;;;;;11.77;11.07;;;;;;;4.07;100.00;93694.19;5009947;28;20235;-76
2023/01/24 03:46:40;;;;;;;11.47;10.77;;;;;;;4.02;99.97;93688.88;5010460;28;20211;-75
2023/01/24 03:49:07;;;;;;;10.33;9.83;;;;;;;4.02;100.00;93675.97;5008258;28;20195;-75
2023/01/24 03:54:16;;;;;;;11.17;10.63;;;;;;;3.94;99.51;93673.63;5008857;28;20262;-75
2023/01/24 03:56:41;;;;;;;10.77;10.17;;;;;;;3.87;99.50;93675.50;5009850;28;20188;-75
2023/01/24 03:59:07;;;;;;;11.63;11.03;;;;;;;3.78;100.00;93676.78;5009434;28;20198;-75
2023/01/24 04:01:32;;;;;;;11.10;10.47;;;;;;;3.77;100.00;93659.69;5010193;28;20278;-75
2023/01/24 04:03:57;;;;;;;11.83;11.17;;;;;;;3.91;99.91;93675.84;5009764;28;20187;-75
2023/01/24 04:06:23;;;;;;;12.10;11.30;;;;;;;3.93;100.00;93674.66;5010290;28;20192;-75
2023/01/24 04:08:49;;;;;;;11.87;11.07;;;;;;;3.82;100.00;93670.19;5009777;28;20242;-75
2023/01/24 04:11:14;;;;;;;10.70;10.13;;;;;;;3.74;99.98;93665.28;5009885;28;20270;-75
2023/01/24 04:13:40;;;;;;;11.03;10.43;;;;;;;3.79;100.00;93667.22;5009834;28;20199;-75
2023/01/24 04:16:07;;;;;;;10.20;9.60;;;;;;;3.81;100.00;93665.22;5007499;28;20295;-75
2023/01/24 04:18:33;;;;;;;11.23;10.53;;;;;;;3.69;100.00;93667.69;5009283;28;20196;-75
2023/01/24 04:21:02;;;;;;;10.37;9.67;;;;;;;3.65;100.00;93666.53;5009654;28;20266;-75
2023/01/24 04:23:28;;;;;;;10.93;10.23;;;;;;;3.74;100.00;93670.44;5009139;28;20218;-75
2023/01/24 04:25:56;;;;;;;11.17;10.57;;;;;;;3.75;100.00;93666.84;5009461;28;20235;-75
2023/01/24 04:28:22;;;;;;;11.83;11.13;;;;;;;3.69;100.00;93665.09;5009197;28;20243;-75
2023/01/24 04:30:48;;;;;;;9.97;9.47;;;;;;;3.77;100.00;93664.84;5009631;28;20222;-75
2023/01/24 04:33:13;;;;;;;11.57;10.87;;;;;;;3.77;100.00;93664.84;5009478;28;20198;-75
2023/01/24 04:35:39;;;;;;;10.90;10.30;;;;;;;3.70;100.00;93653.78;5009809;28;20242;-75
2023/01/24 04:38:04;;;;;;;12.07;11.40;;;;;;;3.75;100.00;93664.25;5009129;28;20218;-75
2023/01/24 04:40:30;;;;;;;12.47;11.53;;;;;;;3.62;100.00;93669.53;5009171;28;20231;-75
2023/01/24 04:42:56;;;;;;;12.27;11.47;;;;;;;3.62;100.00;93655.84;5009450;28;20211;-75
2023/01/24 04:45:22;;;;;;;11.10;10.50;;;;;;;3.80;100.00;93664.41;5008326;28;20227;-75
2023/01/24 04:47:47;;;;;;;11.50;10.80;;;;;;;3.83;100.00;93674.31;5007588;28;20188;-75
2023/01/24 04:50:13;;;;;;;11.97;11.17;;;;;;;3.44;100.00;93653.19;5008462;28;20223;-75
2023/01/24 04:52:38;;;;;;;11.57;10.87;;;;;;;3.60;100.00;93657.81;5007417;28;20191;-74
2023/01/24 04:55:04;;;;;;;11.87;11.17;;;;;;;3.76;100.00;93665.84;5005543;28;20225;-75
2023/01/24 04:57:29;;;;;;;10.50;9.90;;;;;;;3.78;100.00;93676.78;5009743;28;20262;-75
2023/01/24 04:59:55;;;;;;;11.03;10.33;;;;;;;3.85;100.00;93681.88;5007751;28;20231;-75
2023/01/24 05:02:20;;;;;;;11.53;10.93;;;;;;;3.73;100.00;93688.72;5009096;28;20282;-75
2023/01/24 05:04:45;;;;;;;12.37;11.60;;;;;;;3.78;100.00;93678.56;5009173;28;20259;-75
2023/01/24 05:07:12;;;;;;;11.77;10.87;;;;;;;3.69;100.00;93687.56;5009165;28;20195;-75
2023/01/24 05:09:38;;;;;;;11.07;10.47;;;;;;;3.70;100.00;93700.28;5009334;28;20300;-75
2023/01/24 05:12:03;;;;;;;12.00;11.27;;;;;;;3.65;100.00;93688.97;5008849;28;20215;-75
2023/01/24 05:14:29;;;;;;;11.77;10.83;;;;;;;3.76;100.00;93693.47;5007873;28;20234;-75
2023/01/24 05:16:54;;;;;;;10.30;9.73;;;;;;;3.79;100.00;93703.38;5009231;28;20199;-75
2023/01/24 05:19:19;;;;;;;11.67;10.87;;;;;;;3.68;99.55;93691.94;5008045;28;20250;-75
2023/01/24 05:21:45;;;;;;;11.43;10.73;;;;;;;3.70;100.00;93709.81;5008916;28;20207;-74
2023/01/24 05:24:10;;;;;;;12.43;11.63;;;;;;;3.65;100.00;93707.84;5007694;28;20233;-75
2023/01/24 05:26:35;;;;;;;11.03;10.33;;;;;;;3.70;100.00;93727.88;5008815;28;20191;-75
2023/01/24 05:29:01;;;;;;;10.87;10.17;;;;;;;3.71;99.79;93716.53;5006909;28;20192;-75
2023/01/24 05:31:26;;;;;;;11.17;10.37;;;;;;;3.77;99.68;93726.03;5008686;28;20701;-76
2023/01/24 05:33:52;;;;;;;12.23;11.30;;;;;;;3.76;100.00;93733.00;5008630;28;20202;-76
2023/01/24 05:36:20;;;;;;;11.57;10.77;;;;;;;3.49;100.00;93705.75;5009089;28;20219;-74
2023/01/24 05:38:46;;;;;;;12.47;11.57;;;;;;;3.65;100.00;93728.50;5008652;28;20282;-75
2023/01/24 05:41:15;;;;;;;12.67;11.70;;;;;;;3.62;100.00;93734.09;5008158;28;20207;-74
2023/01/24 05:43:41;;;;;;;12.63;11.77;;;;;;;3.56;100.00;93734.94;5008926;28;20210;-76
2023/01/24 05:46:10;;;;;;;12.37;11.20;;;;;;;3.58;100.00;93727.75;5008066;28;20250;-74
2023/01/24 05:48:36;;;;;;;11.60;10.83;;;;;;;3.56;100.00;93724.59;5006874;28;20815;-79
2023/01/24 05:51:06;;;;;;;12.87;11.97;;;;;;;3.67;100.00;93733.47;5008698;28;20232;-74
2023/01/24 05:53:33;;;;;;;12.33;11.53;;;;;;;3.70;100.00;93744.16;5009443;28;20251;-76
2023/01/24 05:56:00;;;;;;;12.60;11.60;;;;;;;3.65;100.00;93733.66;5011562;28;20252;-73
2023/01/24 05:58:30;;;;;;;11.40;10.53;;;;;;;3.71;100.00;93740.56;5011983;28;20282;-72
2023/01/24 06:00:55;;;;;;;11.43;10.73;;;;;;;3.57;100.00;93741.66;5010221;28;20282;-76
2023/01/24 06:03:21;;;;;;;11.90;11.00;;;;;;;3.69;100.00;93737.41;5011050;28;20266;-74
2023/01/24 06:05:49;;;;;;;12.10;11.30;;;;;;;3.75;100.00;93757.22;5011012;28;20234;-75
2023/01/24 06:08:14;;;;;;;10.87;10.17;;;;;;;3.60;100.00;93733.50;5011608;28;20187;-76
2023/01/24 06:10:40;;;;;;;12.87;11.87;;;;;;;3.80;100.00;93759.97;5009110;28;20311;-72
2023/01/24 06:13:05;;;;;;;12.63;11.73;;;;;;;3.59;99.52;93724.19;5035931;28;20218;-75
2023/01/24 06:15:31;;;;;;;13.03;12.23;;;;;;;3.75;98.71;93756.44;5010473;28;20292;-73
2023/01/24 06:17:56;;;;;;;11.70;10.90;;;;;;;3.73;98.84;93740.38;5012201;28;20203;-74
2023/01/24 06:20:22;;;;;;;10.73;10.13;;;;;;;3.85;98.74;93760.16;5011363;28;20282;-73
2023/01/24 06:23:05;;;;;;;11.07;10.30;;;;;;;3.93;98.84;93769.44;5010734;28;20227;-72
2023/01/24 06:25:32;;;;;;;14.57;13.47;;;;;;;3.90;99.49;93764.69;5007094;28;20223;-74
2023/01/24 06:27:58;;;;;;;12.23;11.47;;;;;;;3.91;99.64;93777.38;5008496;28;20196;-73
2023/01/24 06:30:23;;;;;;;11.47;10.87;;;;;;;3.84;100.00;93779.25;5009852;28;20239;-73
2023/01/24 06:33:13;;;;;;;12.03;11.23;;;;;;;3.68;99.87;93790.06;5010728;28;20270;-75
2023/01/24 06:36:03;;;;;;;12.17;11.53;;;;;;;3.62;100.00;93790.88;5008222;28;20238;-78
2023/01/24 06:38:29;;;;;;;11.03;10.47;;;;;;;3.47;100.00;93792.94;5009071;28;20198;-74
2023/01/24 06:41:02;;;;;;;10.17;9.67;;;;;;;3.43;100.00;93786.63;5011480;28;20219;-75
2023/01/24 06:43:28;;;;;;;11.67;11.07;;;;;;;3.54;100.00;93798.88;5007972;28;20215;-75
2023/01/24 06:45:54;;;;;;;11.23;10.53;;;;;;;3.35;100.00;93786.06;5010486;28;20947;-74
2023/01/24 06:48:20;;;;;;;11.80;11.13;;;;;;;3.36;100.00;93797.97;5009022;28;20195;-75
2023/01/24 06:50:46;;;;;;;11.70;11.00;;;;;;;3.32;100.00;93800.16;5009085;28;20251;-77
2023/01/24 06:53:14;;;;;;;11.57;10.77;;;;;;;3.24;100.00;93793.44;5010317;28;20199;-79
2023/01/24 06:55:39;;;;;;;10.70;10.10;;;;;;;3.32;100.00;93800.16;5009601;28;20282;-76
2023/01/24 06:58:05;;;;;;;12.30;11.50;;;;;;;3.37;100.00;93813.25;5009904;28;20194;-76
2023/01/24 07:00:30;;;;;;;12.33;11.63;;;;;;;3.24;100.00;93802.97;5008461;28;20223;-74
2023/01/24 07:03:00;;;;;;;11.40;10.80;;;;;;;3.26;100.00;93811.31;5010077;28;20223;-74
2023/01/24 07:05:27;;;;;;;12.77;11.80;;;;;;;3.32;100.00;93815.66;5011045;28;20227;-77
2023/01/24 07:07:53;;;;;;;12.23;11.53;;;;;;;3.25;100.00;93814.91;5011211;28;20251;-74
2023/01/24 07:10:18;;;;;;;19.63;18.63;;;;;;;3.28;100.00;93804.94;5008859;28;20238;-72
2023/01/24 07:12:44;;;;;;;12.17;11.37;;;;;;;3.21;100.00;93811.94;5009420;28;20234;-72
2023/01/24 07:15:09;;;;;;;14.67;13.47;;;;;;;3.33;100.00;93812.84;5009355;28;20223;-78
2023/01/24 07:17:35;;;;;;;11.17;10.57;;;;;;;3.29;100.00;93805.72;5009206;28;20187;-74
2023/01/24 07:20:01;;;;;;;12.57;11.60;;;;;;;3.42;100.00;93810.84;5008624;28;20220;-75
2023/01/24 07:22:27;;;;;;;12.13;11.40;;;;;;;3.46;100.00;93812.00;5010024;28;20226;-75
2023/01/24 07:24:53;;;;;;;11.53;10.90;;;;;;;3.41;100.00;93817.00;5008905;28;20235;-80
2023/01/24 07:27:18;;;;;;;13.10;12.20;;;;;;;3.44;100.00;93824.31;5011433;28;20184;-81
2023/01/24 07:29:44;;;;;;;14.27;12.93;;;;;;;3.38;100.00;93825.16;5009487;28;20258;-85
2023/01/24 07:32:10;;;;;;;13.47;12.47;;;;;;;3.13;100.00;93811.34;5010587;28;20184;-77
2023/01/24 07:34:36;;;;;;;12.67;11.77;;;;;;;3.11;100.00;93803.03;5010557;28;20237;-77
2023/01/24 07:37:01;;;;;;;14.27;13.10;;;;;;;3.47;100.00;93836.81;5010876;28;21578;-77
2023/01/24 07:39:29;;;;;;;15.93;14.67;;;;;;;3.38;100.00;93819.22;5009922;28;20235;-77
2023/01/24 07:41:55;;;;;;;13.23;12.13;;;;;;;3.43;100.00;93821.94;5010705;28;20211;-76
2023/01/24 07:44:20;;;;;;;14.30;13.30;;;;;;;3.38;100.00;93829.53;5008000;28;20254;-75
2023/01/24 07:46:45;;;;;;;13.70;12.63;;;;;;;3.39;100.00;93839.66;5006318;28;20234;-77
2023/01/24 07:49:11;;;;;;;14.97;13.87;;;;;;;3.46;100.00;93835.25;5009572;28;20235;-76
2023/01/24 07:51:36;;;;;;;14.03;12.97;;;;;;;3.46;100.00;93824.91;5010733;28;20262;-75
2023/01/24 07:54:02;;;;;;;11.53;10.73;;;;;;;3.50;100.00;93849.34;5009902;28;20247;-76
2023/01/24 07:56:28;;;;;;;12.00;11.17;;;;;;;3.44;100.00;93841.63;5009680;28;20180;-76
2023/01/24 07:58:53;;;;;;;12.37;11.53;;;;;;;3.47;100.00;93852.31;5009944;28;20191;-75
2023/01/24 08:01:23;;;;;;;11.90;11.13;;;;;;;3.54;100.00;93855.66;5009470;28;20178;-76
2023/01/24 08:03:49;;;;;;;12.27;11.47;;;;;;;3.71;100.00;93861.13;5010325;28;20206;-76
2023/01/24 08:06:15;;;;;;;12.20;11.40;;;;;;;3.55;100.00;93852.06;5008645;28;20255;-76
2023/01/24 08:08:40;;;;;;;12.73;11.77;;;;;;;3.74;100.00;93858.16;5009136;28;20183;-76
2023/01/24 08:11:06;;;;;;;13.13;11.87;;;;;;;3.79;100.00;93841.06;5008787;28;20227;-76
2023/01/24 08:13:32;;;;;;;12.00;11.10;;;;;;;3.89;100.00;93862.03;5009158;28;20191;-76
2023/01/24 08:15:59;;;;;;;13.30;12.17;;;;;;;3.76;100.00;93849.22;5008958;28;20249;-76
2023/01/24 08:18:25;;;;;;;12.73;11.83;;;;;;;3.69;100.00;93856.19;5009649;28;20187;-76
2023/01/24 08:20:54;;;;;;;12.90;11.97;;;;;;;3.79;100.00;93861.72;5009455;28;20243;-77
2023/01/24 08:23:19;;;;;;;13.20;12.30;;;;;;;3.84;99.85;93848.97;5009510;28;20227;-76
2023/01/24 08:25:45;;;;;;;12.77;11.87;;;;;;;3.94;99.84;93861.44;5009888;28;20246;-76
2023/01/24 08:28:10;;;;;;;12.83;12.10;;;;;;;3.81;99.23;93841.63;5008914;28;20259;-76
2023/01/24 08:30:35;;;;;;;13.27;12.13;;;;;;;3.66;98.69;93823.03;5009444;28;20246;-76
2023/01/24 08:33:03;;;;;;;12.80;11.83;;;;;;;3.52;100.00;93857.66;5010159;28;20202;-76
2023/01/24 08:35:29;;;;;;;11.93;10.97;;;;;;;3.50;100.00;93859.66;5009328;28;20235;-76
2023/01/24 08:37:55;;;;;;;12.27;11.27;;;;;;;3.47;100.00;93854.88;5008634;28;20187;-76
2023/01/24 08:40:20;;;;;;;11.73;10.93;;;;;;;3.60;100.00;93866.94;5009369;28;20243;-76
2023/01/24 08:42:45;;;;;;;11.67;10.87;;;;;;;3.65;100.00;93870.50;5007499;28;20266;-76
2023/01/24 08:45:11;;;;;;;12.70;11.67;;;;;;;3.44;100.00;93829.50;5008377;28;20262;-76
2023/01/24 08:47:36;;;;;;;13.70;12.67;;;;;;;3.50;100.00;93849.34;5009732;28;20184;-76
2023/01/24 08:50:02;;;;;;;14.23;13.03;;;;;;;3.68;100.00;93869.31;5009275;28;20279;-77
2023/01/24 08:52:27;;;;;;;13.07;12.07;;;;;;;3.55;100.00;93862.41;5009491;28;20241;-76
2023/01/24 08:54:53;;;;;;;12.77;11.67;;;;;;;3.55;100.00;93867.56;5009271;28;20249;-76
2023/01/24 08:57:18;;;;;;;13.80;12.73;;;;;;;3.54;100.00;93876.31;5009370;28;20191;-77
2023/01/24 08:59:44;;;;;;;12.63;11.43;;;;;;;3.31;100.00;93850.19;5007851;28;20251;-76
2023/01/24 09:02:13;;;;;;;11.97;11.07;;;;;;;3.33;100.00;93869.63;5008798;28;20229;-76
2023/01/24 09:04:38;;;;;;;11.33;10.57;;;;;;;3.29;100.00;93862.50;5008437;28;20243;-76
2023/01/24 09:07:04;;;;;;;11.87;11.17;;;;;;;3.31;100.00;93866.47;5009066;28;20187;-76
2023/01/24 09:09:29;;;;;;;11.50;10.63;;;;;;;3.23;100.00;93856.38;5007963;28;20302;-76
2023/01/24 09:11:55;;;;;;;12.80;11.70;;;;;;;3.31;100.00;93856.13;5008338;28;20199;-76
2023/01/24 09:14:20;;;;;;;12.90;12.03;;;;;;;3.52;100.00;93865.41;5008828;28;20309;-77
2023/01/24 09:16:46;;;;;;;13.13;12.07;;;;;;;3.59;100.00;93868.75;5009101;28;20187;-76
2023/01/24 09:19:12;;;;;;;12.53;11.60;;;;;;;3.62;100.00;93868.34;5009036;28;20227;-77
2023/01/24 09:21:38;;;;;;;13.63;12.33;;;;;;;3.88;100.00;93872.56;5008422;28;20183;-77
2023/01/24 09:24:03;;;;;;;13.20;12.10;;;;;;;3.79;100.00;93877.22;5009515;28;20184;-77
2023/01/24 09:26:29;;;;;;;13.17;12.17;;;;;;;3.70;100.00;93844.88;5013199;28;20228;-77
2023/01/24 09:28:55;;;;;;;12.43;11.53;;;;;;;3.88;100.00;93868.22;5010289;28;20203;-78
2023/01/24 09:31:20;;;;;;;12.80;11.77;;;;;;;3.71;100.00;93861.94;5012572;28;20195;-76
2023/01/24 09:33:46;;;;;;;12.90;12.00;;;;;;;3.74;100.00;93861.53;5007825;28;20262;-74
2023/01/24 09:36:11;;;;;;;11.80;10.90;;;;;;;3.67;100.00;93860.78;5011060;28;20258;-74
2023/01/24 09:38:37;;;;;;;12.33;11.33;;;;;;;3.52;100.00;93849.91;5009219;28;20198;-75
2023/01/24 09:41:11;;;;;;;13.03;12.07;;;;;;;3.64;100.00;93858.63;5009209;28;20216;-74
2023/01/24 09:43:44;;;;;;;12.13;11.17;;;;;;;3.60;100.00;93865.16;5010171;28;20206;-74
2023/01/24 09:46:40;;;;;;;12.27;11.43;;;;;;;3.35;100.00;93869.44;5009706;28;21344;-71
2023/01/24 09:49:30;;;;;;;12.87;11.77;;;;;;;3.15;100.00;93860.97;5009367;28;20207;-73
2023/01/24 09:51:55;;;;;;;10.87;10.20;;;;;;;3.15;100.00;93853.22;5012002;28;20255;-72
2023/01/24 09:55:00;;;;;;;12.17;11.20;;;;;;;3.22;100.00;93854.78;5010452;28;20251;-72
2023/01/24 09:57:32;;;;;;;12.53;11.73;;;;;;;3.08;100.00;93863.56;5008592;28;20227;-72
2023/01/24 10:00:09;;;;;;;11.87;11.17;;;;;;;2.97;100.00;93845.34;5010544;28;20286;-72
2023/01/24 10:02:35;;;;;;;12.00;11.20;;;;;;;2.96;100.00;93847.13;5009417;28;20233;-74
2023/01/24 10:05:00;;;;;;;13.13;12.07;;;;;;;2.87;100.00;93835.44;5010939;28;20337;-72
2023/01/24 10:07:38;;;;;;;10.60;9.90;;;;;;;3.09;100.00;93848.88;5009964;28;20712;-72
2023/01/24 10:10:03;;;;;;;11.87;11.17;;;;;;;3.02;100.00;93840.34;5010493;28;20239;-72
2023/01/24 10:12:50;;;;;;;13.07;11.93;;;;;;;3.05;100.00;93845.91;5010999;28;20184;-72
2023/01/24 10:15:30;;;;;;;10.73;10.07;;;;;;;3.19;100.00;93846.69;5010039;28;20245;-72
2023/01/24 10:18:15;;;;;;;10.87;10.27;;;;;;;3.14;100.00;93844.69;5010485;28;20187;-71
2023/01/24 10:20:52;;;;;;;10.67;10.07;;;;;;;3.33;100.00;93843.81;5009043;28;20231;-72
2023/01/24 10:23:37;;;;;;;11.13;10.43;;;;;;;3.44;100.00;93841.63;5009548;28;20207;-71
2023/01/24 10:26:48;;;;;;;12.40;11.60;;;;;;;3.36;100.00;93836.69;5007441;28;20329;-72
2023/01/24 10:29:17;;;;;;;12.67;11.80;;;;;;;3.37;100.00;93833.91;5020411;28;20309;-72
2023/01/24 10:31:51;;;;;;;10.70;10.00;;;;;;;3.57;100.00;93832.03;5019038;28;20317;-71
2023/01/24 10:34:38;;;;;;;10.40;9.80;;;;;;;3.15;100.00;93809.34;5000686;28;20238;-80
2023/01/24 10:37:09;;;;;;;10.70;10.03;;;;;;;3.37;100.00;93821.00;4982175;28;20193;-78
2023/01/24 10:39:36;;;;;;;10.57;9.97;;;;;;;3.58;100.00;93820.69;4995347;28;20279;-79
2023/01/24 10:42:03;;;;;;;11.03;10.43;;;;;;;3.58;100.00;93815.53;5008881;28;20202;-78
2023/01/24 10:44:37;;;;;;;11.40;10.77;;;;;;;3.56;100.00;93827.88;5005812;28;20251;-79
2023/01/24 10:47:12;;;;;;;12.43;11.13;;;;;;;3.30;100.00;93807.31;5008793;28;20185;-78
2023/01/24 10:49:41;;;;;;;11.57;10.77;;;;;;;3.26;100.00;93825.00;5008170;28;20250;-78
2023/01/24 10:52:11;;;;;;;11.70;11.00;;;;;;;3.29;100.00;93822.03;5008315;28;20291;-78
2023/01/24 10:54:53;;;;;;;11.43;10.60;;;;;;;3.15;100.00;93825.66;5009793;28;20251;-77
2023/01/24 10:57:44;;;;;;;11.60;10.87;;;;;;;3.31;100.00;93821.81;5009941;28;20205;-78
2023/01/24 11:00:22;;;;;;;10.83;10.20;;;;;;;3.20;100.00;93822.44;5009828;28;20227;-81
2023/01/24 11:02:54;;;;;;;11.00;10.40;;;;;;;3.09;100.00;93815.34;5009310;28;20218;-79
2023/01/24 11:05:21;;;;;;;11.00;10.40;;;;;;;3.10;100.00;93815.13;5009549;28;20231;-80
2023/01/24 11:07:58;;;;;;;11.23;10.63;;;;;;;2.97;100.00;93796.34;5005823;28;20223;-80
2023/01/24 11:10:34;;;;;;;9.97;9.50;;;;;;;3.09;100.00;93816.13;5006695;28;20279;-79
2023/01/24 11:13:02;;;;;;;11.43;10.93;;;;;;;3.07;100.00;93815.53;5008209;28;20177;-74
2023/01/24 11:15:35;;;;;;;11.17;10.60;;;;;;;3.30;100.00;93812.47;5008108;28;20237;-76
2023/01/24 11:18:19;;;;;;;11.53;10.73;;;;;;;3.42;100.00;93808.28;5008231;28;20191;-73
2023/01/24 11:20:44;;;;;;;12.27;11.50;;;;;;;3.10;100.00;93801.44;5007946;28;21055;-74
2023/01/24 11:23:15;;;;;;;10.10;9.50;;;;;;;3.04;100.00;93812.56;5008822;28;20211;-75
2023/01/24 11:26:20;;;;;;;10.97;10.27;;;;;;;3.26;100.00;93801.00;5010075;28;20237;-76
2023/01/24 11:28:56;;;;;;;11.43;10.80;;;;;;;3.16;100.00;93798.84;5006360;28;20211;-76
2023/01/24 11:31:44;;;;;;;12.63;11.93;;;;;;;3.05;100.00;93802.03;5007016;28;20222;-74
2023/01/24 11:34:47;;;;;;;12.50;11.47;;;;;;;3.22;100.00;93795.44;5005675;28;20199;-73
2023/01/24 11:37:27;;;;;;;16.23;15.27;;;;;;;3.18;100.00;93794.28;5007736;28;20263;-73
2023/01/24 11:40:04;;;;;;;10.60;9.53;;;;;;;3.14;100.00;93789.72;5009046;28;20966;-73
2023/01/24 11:42:58;;;;;;;11.27;10.67;;;;;;;3.12;100.00;93789.94;5006559;28;20942;-74
2023/01/24 11:45:58;;;;;;;11.47;10.87;;;;;;;3.22;100.00;93774.78;5008038;28;20231;-75
2023/01/24 11:48:29;;;;;;;11.23;10.53;;;;;;;3.30;100.00;93789.25;5008992;28;20195;-73
2023/01/24 11:51:05;;;;;;;10.60;9.90;;;;;;;3.34;100.00;93793.00;5008425;28;20261;-74
2023/01/24 11:53:40;;;;;;;11.03;10.33;;;;;;;3.20;100.00;93787.13;5007947;28;20199;-72
2023/01/24 11:56:20;;;;;;;10.63;9.87;;;;;;;3.38;100.00;93790.81;5005114;28;20601;-73
2023/01/24 11:59:09;;;;;;;10.17;9.63;;;;;;;3.46;100.00;93785.41;5007094;28;20183;-73
2023/01/24 12:02:11;;;;;;;10.83;10.27;;;;;;;3.47;100.00;93784.41;5002980;28;20219;-73
2023/01/24 12:04:46;;;;;;;10.60;10.00;;;;;;;3.46;100.00;93786.19;5006200;28;20234;-73
2023/01/24 12:07:53;;;;;;;11.57;10.87;;;;;;;3.40;100.00;93786.22;5006671;28;21844;-73